sensor_id;sensor_type;location;lat;lon;timestamp;pressure;altitude;pressure_sealevel;temperature;humidity
57708;BME280;43540;51.690;9.562;2023-05-29T08:36:33;99902.25;;;19.00;62.06
57708;BME280;43540;51.690;9.562;2023-05-29T08:39:00;99897.69;;;18.43;65.93
57708;BME280;43540;51.690;9.562;2023-05-29T08:41:38;99898.03;;;18.40;72.68
57708;BME280;43540;51.690;9.562;2023-05-29T08:44:14;99884.09;;;18.46;70.28
57708;BME280;43540;51.690;9.562;2023-05-29T08:46:44;99888.59;;;18.54;72.78
57708;BME280;43540;51.690;9.562;2023-05-29T08:49:16;99893.06;;;18.54;67.37
57708;BME280;43540;51.690;9.562;2023-05-29T08:51:46;99885.75;;;18.56;68.59
57708;BME280;43540;51.690;9.562;2023-05-29T08:54:14;99888.28;;;18.49;67.34
57708;BME280;43540;51.690;9.562;2023-05-29T08:56:41;99888.72;;;18.36;68.53
57708;BME280;43540;51.690;9.562;2023-05-29T08:59:11;99882.44;;;18.45;68.80
57708;BME280;43540;51.690;9.562;2023-05-29T09:01:38;99887.75;;;18.45;69.28
57708;BME280;43540;51.690;9.562;2023-05-29T09:04:05;99897.53;;;18.45;70.30
57708;BME280;43540;51.690;9.562;2023-05-29T09:06:32;99903.38;;;18.57;68.31
57708;BME280;43540;51.690;9.562;2023-05-29T09:08:59;99898.72;;;18.59;69.20
57708;BME280;43540;51.690;9.562;2023-05-29T09:11:25;99895.44;;;18.65;69.71
57708;BME280;43540;51.690;9.562;2023-05-29T09:13:52;99899.91;;;18.72;71.62
57708;BME280;43540;51.690;9.562;2023-05-29T09:16:19;99898.22;;;18.63;70.05
57708;BME280;43540;51.690;9.562;2023-05-29T09:18:49;99907.56;;;18.67;73.35
57708;BME280;43540;51.690;9.562;2023-05-29T09:21:27;99910.88;;;18.69;72.25
57708;BME280;43540;51.690;9.562;2023-05-29T09:23:54;99906.19;;;18.63;74.07
57708;BME280;43540;51.690;9.562;2023-05-29T09:26:21;99909.91;;;18.79;73.66
57708;BME280;43540;51.690;9.562;2023-05-29T09:28:49;99905.06;;;18.90;73.03
57708;BME280;43540;51.690;9.562;2023-05-29T09:31:16;99911.22;;;18.91;69.84
57708;BME280;43540;51.690;9.562;2023-05-29T09:33:48;99915.34;;;19.10;68.09
57708;BME280;43540;51.690;9.562;2023-05-29T09:36:24;99913.38;;;19.03;69.34
57708;BME280;43540;51.690;9.562;2023-05-29T09:38:52;99920.00;;;18.99;67.34
57708;BME280;43540;51.690;9.562;2023-05-29T09:41:25;99913.03;;;19.15;64.86
57708;BME280;43540;51.690;9.562;2023-05-29T09:43:54;99921.66;;;19.25;67.45
57708;BME280;43540;51.690;9.562;2023-05-29T09:46:24;99923.31;;;19.18;67.77
57708;BME280;43540;51.690;9.562;2023-05-29T09:48:50;99916.00;;;19.20;68.46
57708;BME280;43540;51.690;9.562;2023-05-29T09:51:21;99922.66;;;19.24;70.18
57708;BME280;43540;51.690;9.562;2023-05-29T09:53:48;99918.81;;;19.35;68.40
57708;BME280;43540;51.690;9.562;2023-05-29T09:56:17;99919.47;;;19.45;69.51
57708;BME280;43540;51.690;9.562;2023-05-29T09:58:44;99914.69;;;19.24;67.93
57708;BME280;43540;51.690;9.562;2023-05-29T10:01:16;99898.09;;;19.30;68.60
57708;BME280;43540;51.690;9.562;2023-05-29T10:03:43;99907.34;;;19.42;69.43
57708;BME280;43540;51.690;9.562;2023-05-29T10:06:11;99905.34;;;19.60;71.63
57708;BME280;43540;51.690;9.562;2023-05-29T10:08:45;99907.63;;;19.72;73.61
57708;BME280;43540;51.690;9.562;2023-05-29T10:11:21;99916.13;;;19.67;67.74
57708;BME280;43540;51.690;9.562;2023-05-29T10:13:48;99900.63;;;19.79;64.75
57708;BME280;43540;51.690;9.562;2023-05-29T10:16:20;99911.09;;;19.80;66.73
57708;BME280;43540;51.690;9.562;2023-05-29T10:18:53;99910.13;;;19.73;67.36
57708;BME280;43540;51.690;9.562;2023-05-29T10:21:21;99908.06;;;19.83;68.16
57708;BME280;43540;51.690;9.562;2023-05-29T10:23:50;99913.19;;;19.93;64.56
57708;BME280;43540;51.690;9.562;2023-05-29T10:26:22;99905.16;;;19.70;67.53
57708;BME280;43540;51.690;9.562;2023-05-29T10:31:59;99903.34;;;19.46;67.83
57708;BME280;43540;51.690;9.562;2023-05-29T10:39:43;99895.59;;;19.84;68.15
57708;BME280;43540;51.690;9.562;2023-05-29T10:42:48;99897.50;;;20.06;66.38
57708;BME280;43540;51.690;9.562;2023-05-29T10:48:42;99897.28;;;20.16;69.10
57708;BME280;43540;51.690;9.562;2023-05-29T10:50:47;99894.78;;;19.83;63.73
57708;BME280;43540;51.690;9.562;2023-05-29T10:53:18;99897.59;;;19.90;64.73
57708;BME280;43540;51.690;9.562;2023-05-29T10:55:50;99898.91;;;19.94;63.63
57708;BME280;43540;51.690;9.562;2023-05-29T10:58:25;99897.41;;;19.92;62.31
57708;BME280;43540;51.690;9.562;2023-05-29T11:00:53;99898.72;;;19.32;62.92
57708;BME280;43540;51.690;9.562;2023-05-29T11:13:56;99888.84;;;19.73;64.23
57708;BME280;43540;51.690;9.562;2023-05-29T11:18:57;99884.06;;;20.00;66.83
57708;BME280;43540;51.690;9.562;2023-05-29T11:24:03;99900.69;;;19.63;62.38
57708;BME280;43540;51.690;9.562;2023-05-29T11:26:35;99887.94;;;19.33;61.92
57708;BME280;43540;51.690;9.562;2023-05-29T11:29:04;99897.84;;;19.64;61.06
57708;BME280;43540;51.690;9.562;2023-05-29T11:31:35;99891.13;;;19.84;60.09
57708;BME280;43540;51.690;9.562;2023-05-29T11:34:03;99854.81;;;19.52;65.77
57708;BME280;43540;51.690;9.562;2023-05-29T11:36:35;99881.53;;;19.75;61.87
57708;BME280;43540;51.690;9.562;2023-05-29T11:39:02;99885.53;;;20.02;64.91
57708;BME280;43540;51.690;9.562;2023-05-29T11:41:30;99884.91;;;20.00;59.38
57708;BME280;43540;51.690;9.562;2023-05-29T11:44:01;99882.38;;;19.76;58.75
57708;BME280;43540;51.690;9.562;2023-05-29T11:46:32;99885.25;;;19.97;63.52
57708;BME280;43540;51.690;9.562;2023-05-29T11:48:59;99878.75;;;20.00;59.56
57708;BME280;43540;51.690;9.562;2023-05-29T11:51:27;99882.00;;;20.10;60.23
57708;BME280;43540;51.690;9.562;2023-05-29T11:53:54;99874.84;;;20.10;58.77
57708;BME280;43540;51.690;9.562;2023-05-29T11:56:25;99875.00;;;20.17;56.31
57708;BME280;43540;51.690;9.562;2023-05-29T11:58:54;99876.13;;;20.54;60.97
57708;BME280;43540;51.690;9.562;2023-05-29T12:01:26;99886.03;;;20.83;60.66
57708;BME280;43540;51.690;9.562;2023-05-29T12:03:54;99870.94;;;20.75;58.97
57708;BME280;43540;51.690;9.562;2023-05-29T12:06:31;99893.22;;;20.82;58.36
57708;BME280;43540;51.690;9.562;2023-05-29T12:08:59;99894.41;;;20.57;58.92
57708;BME280;43540;51.690;9.562;2023-05-29T12:11:25;99880.50;;;20.47;55.38
57708;BME280;43540;51.690;9.562;2023-05-29T12:13:57;99869.78;;;20.55;55.69
57708;BME280;43540;51.690;9.562;2023-05-29T12:16:24;99878.34;;;20.42;58.37
57708;BME280;43540;51.690;9.562;2023-05-29T12:18:53;99874.53;;;20.13;55.91
57708;BME280;43540;51.690;9.562;2023-05-29T12:21:21;99874.16;;;20.48;56.23
57708;BME280;43540;51.690;9.562;2023-05-29T12:23:51;99880.13;;;20.72;63.83
57708;BME280;43540;51.690;9.562;2023-05-29T12:26:36;99888.50;;;20.38;53.34
57708;BME280;43540;51.690;9.562;2023-05-29T12:29:03;99876.50;;;20.42;54.64
57708;BME280;43540;51.690;9.562;2023-05-29T12:31:33;99879.06;;;20.05;55.15
57708;BME280;43540;51.690;9.562;2023-05-29T12:34:11;99874.72;;;20.35;57.80
57708;BME280;43540;51.690;9.562;2023-05-29T12:36:42;99864.53;;;20.69;56.31
57708;BME280;43540;51.690;9.562;2023-05-29T12:39:12;99877.28;;;20.74;58.91
57708;BME280;43540;51.690;9.562;2023-05-29T12:41:38;99872.56;;;20.61;58.86
57708;BME280;43540;51.690;9.562;2023-05-29T12:44:07;99870.38;;;20.65;55.49
57708;BME280;43540;51.690;9.562;2023-05-29T12:46:39;99869.50;;;20.18;52.98
57708;BME280;43540;51.690;9.562;2023-05-29T12:51:41;99861.19;;;20.22;55.21
57708;BME280;43540;51.690;9.562;2023-05-29T12:54:13;99874.53;;;20.13;56.92
57708;BME280;43540;51.690;9.562;2023-05-29T12:56:40;99874.16;;;20.16;55.71
57708;BME280;43540;51.690;9.562;2023-05-29T12:59:07;99875.56;;;20.35;54.66
57708;BME280;43540;51.690;9.562;2023-05-29T13:01:36;99873.03;;;20.65;55.60
57708;BME280;43540;51.690;9.562;2023-05-29T13:04:04;99863.25;;;20.57;55.71
57708;BME280;43540;51.690;9.562;2023-05-29T13:06:34;99869.56;;;21.02;52.23
57708;BME280;43540;51.690;9.562;2023-05-29T13:09:02;99858.03;;;21.24;55.27
57708;BME280;43540;51.690;9.562;2023-05-29T13:11:29;99862.31;;;20.96;48.70
57708;BME280;43540;51.690;9.562;2023-05-29T13:13:56;99861.69;;;21.23;53.12
57708;BME280;43540;51.690;9.562;2023-05-29T13:16:22;99851.56;;;21.04;51.71
57708;BME280;43540;51.690;9.562;2023-05-29T13:18:49;99836.69;;;21.24;53.04
57708;BME280;43540;51.690;9.562;2023-05-29T13:21:16;99858.25;;;21.00;51.56
57708;BME280;43540;51.690;9.562;2023-05-29T13:23:42;99865.63;;;20.75;51.93
57708;BME280;43540;51.690;9.562;2023-05-29T13:26:09;99864.31;;;20.94;54.88
57708;BME280;43540;51.690;9.562;2023-05-29T13:28:35;99862.00;;;21.43;53.92
57708;BME280;43540;51.690;9.562;2023-05-29T13:31:02;99861.19;;;21.43;46.68
57708;BME280;43540;51.690;9.562;2023-05-29T13:33:29;99859.34;;;21.43;50.37
57708;BME280;43540;51.690;9.562;2023-05-29T13:35:55;99862.84;;;21.58;52.49
57708;BME280;43540;51.690;9.562;2023-05-29T13:38:24;99855.56;;;21.52;50.32
57708;BME280;43540;51.690;9.562;2023-05-29T13:40:50;99859.34;;;21.58;51.05
57708;BME280;43540;51.690;9.562;2023-05-29T13:43:17;99866.16;;;21.46;51.03
57708;BME280;43540;51.690;9.562;2023-05-29T13:45:47;99863.75;;;21.51;49.56
57708;BME280;43540;51.690;9.562;2023-05-29T13:48:14;99860.72;;;21.54;47.74
57708;BME280;43540;51.690;9.562;2023-05-29T13:50:41;99864.59;;;21.51;47.71
57708;BME280;43540;51.690;9.562;2023-05-29T13:53:07;99851.16;;;21.60;47.86
57708;BME280;43540;51.690;9.562;2023-05-29T13:55:34;99856.47;;;21.30;48.62
57708;BME280;43540;51.690;9.562;2023-05-29T13:58:01;99845.56;;;20.87;49.28
57708;BME280;43540;51.690;9.562;2023-05-29T14:00:27;99850.31;;;20.77;50.35
57708;BME280;43540;51.690;9.562;2023-05-29T14:02:54;99855.78;;;20.76;48.88
57708;BME280;43540;51.690;9.562;2023-05-29T14:05:21;99851.97;;;20.78;48.18
57708;BME280;43540;51.690;9.562;2023-05-29T14:07:48;99849.06;;;20.88;47.78
57708;BME280;43540;51.690;9.562;2023-05-29T14:10:14;99854.25;;;20.81;48.76
57708;BME280;43540;51.690;9.562;2023-05-29T14:12:41;99863.22;;;20.65;49.53
57708;BME280;43540;51.690;9.562;2023-05-29T14:15:08;99856.47;;;20.92;48.49
57708;BME280;43540;51.690;9.562;2023-05-29T14:17:35;99852.34;;;21.57;49.46
57708;BME280;43540;51.690;9.562;2023-05-29T14:20:02;99846.53;;;21.83;48.32
57708;BME280;43540;51.690;9.562;2023-05-29T14:22:31;99844.81;;;22.11;48.32
57708;BME280;43540;51.690;9.562;2023-05-29T14:24:58;99843.34;;;21.43;46.73
57708;BME280;43540;51.690;9.562;2023-05-29T14:27:26;99845.09;;;21.51;47.49
57708;BME280;43540;51.690;9.562;2023-05-29T14:29:53;99842.88;;;21.54;47.24
57708;BME280;43540;51.690;9.562;2023-05-29T14:32:19;99853.28;;;21.49;47.16
57708;BME280;43540;51.690;9.562;2023-05-29T14:34:47;99848.53;;;21.07;46.45
57708;BME280;43540;51.690;9.562;2023-05-29T14:37:14;99855.38;;;21.39;47.95
57708;BME280;43540;51.690;9.562;2023-05-29T14:39:41;99847.53;;;21.82;48.39
57708;BME280;43540;51.690;9.562;2023-05-29T14:42:08;99848.03;;;21.41;47.95
57708;BME280;43540;51.690;9.562;2023-05-29T14:44:34;99852.31;;;21.86;48.65
57708;BME280;43540;51.690;9.562;2023-05-29T14:47:01;99850.53;;;21.94;46.28
57708;BME280;43540;51.690;9.562;2023-05-29T14:49:27;99855.34;;;22.13;46.37
57708;BME280;43540;51.690;9.562;2023-05-29T14:51:58;99847.19;;;22.21;45.24
57708;BME280;43540;51.690;9.562;2023-05-29T14:54:25;99858.38;;;22.10;46.01
57708;BME280;43540;51.690;9.562;2023-05-29T14:56:53;99854.84;;;22.46;46.35
57708;BME280;43540;51.690;9.562;2023-05-29T14:59:20;99855.81;;;22.59;45.69
57708;BME280;43540;51.690;9.562;2023-05-29T15:01:47;99846.13;;;22.01;44.33
57708;BME280;43540;51.690;9.562;2023-05-29T15:04:16;99851.78;;;22.27;45.03
57708;BME280;43540;51.690;9.562;2023-05-29T15:06:42;99847.97;;;22.15;46.94
57708;BME280;43540;51.690;9.562;2023-05-29T15:09:17;99849.84;;;21.70;44.64
57708;BME280;43540;51.690;9.562;2023-05-29T15:11:44;99858.31;;;21.74;46.05
57708;BME280;43540;51.690;9.562;2023-05-29T15:14:10;99854.00;;;21.73;46.42
57708;BME280;43540;51.690;9.562;2023-05-29T15:16:37;99827.94;;;21.75;44.58
57708;BME280;43540;51.690;9.562;2023-05-29T15:19:04;99858.22;;;21.82;48.65
57708;BME280;43540;51.690;9.562;2023-05-29T15:21:31;99848.91;;;22.07;47.06
57708;BME280;43540;51.690;9.562;2023-05-29T15:23:58;99863.72;;;21.95;46.83
57708;BME280;43540;51.690;9.562;2023-05-29T15:26:24;99858.66;;;22.36;44.82
57708;BME280;43540;51.690;9.562;2023-05-29T15:28:52;99848.94;;;22.50;46.29
57708;BME280;43540;51.690;9.562;2023-05-29T15:31:19;99852.47;;;22.36;46.58
57708;BME280;43540;51.690;9.562;2023-05-29T15:33:48;99848.53;;;21.96;45.59
57708;BME280;43540;51.690;9.562;2023-05-29T15:36:15;99848.03;;;21.71;44.35
57708;BME280;43540;51.690;9.562;2023-05-29T15:38:42;99850.06;;;21.69;45.04
57708;BME280;43540;51.690;9.562;2023-05-29T15:41:09;99847.81;;;21.57;46.11
57708;BME280;43540;51.690;9.562;2023-05-29T15:43:35;99844.63;;;21.77;45.28
57708;BME280;43540;51.690;9.562;2023-05-29T15:46:02;99845.16;;;21.57;44.89
57708;BME280;43540;51.690;9.562;2023-05-29T15:48:30;99836.44;;;21.64;45.42
57708;BME280;43540;51.690;9.562;2023-05-29T15:50:56;99839.00;;;21.72;44.66
57708;BME280;43540;51.690;9.562;2023-05-29T15:53:23;99835.06;;;21.53;44.39
57708;BME280;43540;51.690;9.562;2023-05-29T15:55:50;99830.66;;;21.45;46.35
57708;BME280;43540;51.690;9.562;2023-05-29T15:58:16;99839.94;;;21.49;45.27
57708;BME280;43540;51.690;9.562;2023-05-29T16:00:43;99823.97;;;20.97;46.21
57708;BME280;43540;51.690;9.562;2023-05-29T16:03:09;99842.78;;;21.63;46.82
57708;BME280;43540;51.690;9.562;2023-05-29T16:05:36;99839.28;;;21.77;45.69
57708;BME280;43540;51.690;9.562;2023-05-29T16:08:02;99839.97;;;21.12;46.74
57708;BME280;43540;51.690;9.562;2023-05-29T16:10:29;99836.22;;;21.21;47.33
57708;BME280;43540;51.690;9.562;2023-05-29T16:12:57;99840.94;;;21.34;44.41
57708;BME280;43540;51.690;9.562;2023-05-29T16:15:23;99839.22;;;20.88;44.90
57708;BME280;43540;51.690;9.562;2023-05-29T16:17:50;99840.81;;;20.74;45.90
57708;BME280;43540;51.690;9.562;2023-05-29T16:20:17;99846.97;;;20.75;47.12
57708;BME280;43540;51.690;9.562;2023-05-29T16:22:44;99839.72;;;20.46;45.93
57708;BME280;43540;51.690;9.562;2023-05-29T16:25:11;99833.84;;;20.73;46.13
57708;BME280;43540;51.690;9.562;2023-05-29T16:27:38;99844.78;;;20.33;48.56
57708;BME280;43540;51.690;9.562;2023-05-29T16:30:05;99834.72;;;20.20;45.09
57708;BME280;43540;51.690;9.562;2023-05-29T16:32:33;99845.84;;;20.24;45.28
57708;BME280;43540;51.690;9.562;2023-05-29T16:35:04;99844.28;;;19.75;46.49
57708;BME280;43540;51.690;9.562;2023-05-29T16:37:30;99853.34;;;20.20;47.12
57708;BME280;43540;51.690;9.562;2023-05-29T16:39:57;99853.34;;;20.20;46.97
57708;BME280;43540;51.690;9.562;2023-05-29T16:42:24;99838.84;;;20.00;47.19
57708;BME280;43540;51.690;9.562;2023-05-29T16:44:51;99841.22;;;20.17;46.16
57708;BME280;43540;51.690;9.562;2023-05-29T16:47:19;99855.19;;;19.88;47.57
57708;BME280;43540;51.690;9.562;2023-05-29T16:49:46;99850.59;;;19.74;45.12
57708;BME280;43540;51.690;9.562;2023-05-29T16:52:12;99850.19;;;19.94;47.40
57708;BME280;43540;51.690;9.562;2023-05-29T16:54:41;99853.75;;;19.78;46.04
57708;BME280;43540;51.690;9.562;2023-05-29T16:57:08;99851.06;;;19.86;46.74
57708;BME280;43540;51.690;9.562;2023-05-29T16:59:36;99859.75;;;19.72;45.54
57708;BME280;43540;51.690;9.562;2023-05-29T17:02:03;99857.84;;;19.57;45.90
57708;BME280;43540;51.690;9.562;2023-05-29T17:04:30;99853.47;;;19.65;46.47
57708;BME280;43540;51.690;9.562;2023-05-29T17:06:59;99857.69;;;19.35;46.93
57708;BME280;43540;51.690;9.562;2023-05-29T17:09:26;99858.88;;;19.32;46.47
57708;BME280;43540;51.690;9.562;2023-05-29T17:11:56;99867.84;;;19.23;47.12
57708;BME280;43540;51.690;9.562;2023-05-29T17:14:23;99860.25;;;19.12;47.38
57708;BME280;43540;51.690;9.562;2023-05-29T17:16:50;99861.50;;;19.40;46.76
57708;BME280;43540;51.690;9.562;2023-05-29T17:19:17;99869.31;;;19.33;45.25
57708;BME280;43540;51.690;9.562;2023-05-29T17:21:44;99874.19;;;18.89;44.50
57708;BME280;43540;51.690;9.562;2023-05-29T17:24:11;99879.69;;;18.80;44.21
57708;BME280;43540;51.690;9.562;2023-05-29T17:26:38;99879.50;;;18.65;43.24
57708;BME280;43540;51.690;9.562;2023-05-29T17:29:05;99886.31;;;18.67;42.85
57708;BME280;43540;51.690;9.562;2023-05-29T17:31:33;99888.44;;;18.64;43.66
57708;BME280;43540;51.690;9.562;2023-05-29T17:34:00;99895.38;;;18.40;44.34
57708;BME280;43540;51.690;9.562;2023-05-29T17:36:26;99889.41;;;18.30;41.18
57708;BME280;43540;51.690;9.562;2023-05-29T17:38:53;99875.59;;;18.27;41.89
57708;BME280;43540;51.690;9.562;2023-05-29T17:41:20;99885.72;;;18.23;40.32
57708;BME280;43540;51.690;9.562;2023-05-29T17:43:46;99892.34;;;18.27;41.90
57708;BME280;43540;51.690;9.562;2023-05-29T17:46:13;99893.84;;;18.22;41.05
57708;BME280;43540;51.690;9.562;2023-05-29T17:48:46;99897.50;;;18.21;42.58
57708;BME280;43540;51.690;9.562;2023-05-29T17:51:14;99902.78;;;18.12;41.89
57708;BME280;43540;51.690;9.562;2023-05-29T17:53:41;99901.78;;;18.13;41.34
57708;BME280;43540;51.690;9.562;2023-05-29T17:56:08;99901.81;;;17.79;39.30
57708;BME280;43540;51.690;9.562;2023-05-29T17:58:35;99870.38;;;17.58;39.78
57708;BME280;43540;51.690;9.562;2023-05-29T18:01:02;99895.72;;;17.61;41.63
57708;BME280;43540;51.690;9.562;2023-05-29T18:03:28;99886.88;;;17.70;40.19
57708;BME280;43540;51.690;9.562;2023-05-29T18:05:55;99889.88;;;17.75;39.99
57708;BME280;43540;51.690;9.562;2023-05-29T18:08:22;99889.38;;;17.80;42.24
57708;BME280;43540;51.690;9.562;2023-05-29T18:10:49;99889.25;;;17.89;39.84
57708;BME280;43540;51.690;9.562;2023-05-29T18:13:16;99895.06;;;17.85;39.57
57708;BME280;43540;51.690;9.562;2023-05-29T18:15:43;99882.25;;;17.80;39.88
57708;BME280;43540;51.690;9.562;2023-05-29T18:18:09;99874.91;;;17.66;40.33
57708;BME280;43540;51.690;9.562;2023-05-29T18:20:36;99883.31;;;17.61;40.78
57708;BME280;43540;51.690;9.562;2023-05-29T18:23:04;99884.84;;;17.38;41.75
57708;BME280;43540;51.690;9.562;2023-05-29T18:25:30;99889.09;;;17.57;40.16
57708;BME280;43540;51.690;9.562;2023-05-29T18:27:58;99884.38;;;17.43;42.29
57708;BME280;43540;51.690;9.562;2023-05-29T18:30:25;99868.06;;;17.29;41.32
57708;BME280;43540;51.690;9.562;2023-05-29T18:32:52;99874.56;;;17.35;41.08
57708;BME280;43540;51.690;9.562;2023-05-29T18:35:20;99874.97;;;17.48;42.74
57708;BME280;43540;51.690;9.562;2023-05-29T18:37:46;99885.56;;;17.48;44.52
57708;BME280;43540;51.690;9.562;2023-05-29T18:40:16;99895.63;;;17.45;44.34
57708;BME280;43540;51.690;9.562;2023-05-29T18:42:43;99890.34;;;17.45;44.27
57708;BME280;43540;51.690;9.562;2023-05-29T18:45:10;99890.94;;;17.30;44.70
57708;BME280;43540;51.690;9.562;2023-05-29T18:47:37;99897.72;;;17.07;44.78
57708;BME280;43540;51.690;9.562;2023-05-29T18:50:04;99902.50;;;17.03;46.20
57708;BME280;43540;51.690;9.562;2023-05-29T18:52:31;99907.50;;;16.89;46.24
57708;BME280;43540;51.690;9.562;2023-05-29T18:54:58;99882.31;;;16.85;47.30
57708;BME280;43540;51.690;9.562;2023-05-29T18:57:25;99912.94;;;17.05;47.93
57708;BME280;43540;51.690;9.562;2023-05-29T18:59:51;99912.50;;;16.92;47.16
57708;BME280;43540;51.690;9.562;2023-05-29T19:02:19;99905.75;;;16.97;47.54
57708;BME280;43540;51.690;9.562;2023-05-29T19:04:46;99904.72;;;16.72;47.44
57708;BME280;43540;51.690;9.562;2023-05-29T19:07:13;99907.91;;;16.76;50.18
57708;BME280;43540;51.690;9.562;2023-05-29T19:09:40;99906.66;;;16.53;49.21
57708;BME280;43540;51.690;9.562;2023-05-29T19:12:09;99906.38;;;16.56;51.04
57708;BME280;43540;51.690;9.562;2023-05-29T19:14:36;99906.28;;;16.65;51.09
57708;BME280;43540;51.690;9.562;2023-05-29T19:17:03;99909.91;;;16.46;51.41
57708;BME280;43540;51.690;9.562;2023-05-29T19:19:34;99893.19;;;16.28;50.82
57708;BME280;43540;51.690;9.562;2023-05-29T19:22:02;99920.06;;;16.24;51.61
57708;BME280;43540;51.690;9.562;2023-05-29T19:24:29;99920.28;;;16.12;51.03
57708;BME280;43540;51.690;9.562;2023-05-29T19:26:56;99924.75;;;16.12;53.22
57708;BME280;43540;51.690;9.562;2023-05-29T19:29:23;99929.44;;;16.18;54.31
57708;BME280;43540;51.690;9.562;2023-05-29T19:31:49;99932.28;;;16.07;51.79
57708;BME280;43540;51.690;9.562;2023-05-29T19:34:16;99929.56;;;15.89;53.54
57708;BME280;43540;51.690;9.562;2023-05-29T19:36:43;99935.03;;;15.87;54.63
57708;BME280;43540;51.690;9.562;2023-05-29T19:39:10;99938.63;;;15.40;56.78
57708;BME280;43540;51.690;9.562;2023-05-29T19:41:37;99940.53;;;15.57;58.43
57708;BME280;43540;51.690;9.562;2023-05-29T19:44:07;99946.38;;;15.51;56.48
57708;BME280;43540;51.690;9.562;2023-05-29T19:46:37;99951.59;;;15.23;56.52
57708;BME280;43540;51.690;9.562;2023-05-29T19:49:05;99948.25;;;15.31;58.50
57708;BME280;43540;51.690;9.562;2023-05-29T19:51:32;99951.75;;;15.12;58.35
57708;BME280;43540;51.690;9.562;2023-05-29T19:53:59;99952.41;;;15.24;58.53
57708;BME280;43540;51.690;9.562;2023-05-29T19:56:26;99947.84;;;15.06;60.32
57708;BME280;43540;51.690;9.562;2023-05-29T19:58:53;99959.09;;;15.08;60.54
57708;BME280;43540;51.690;9.562;2023-05-29T20:01:21;99948.13;;;14.94;58.84
57708;BME280;43540;51.690;9.562;2023-05-29T20:03:47;99960.22;;;15.06;60.16
57708;BME280;43540;51.690;9.562;2023-05-29T20:06:14;99968.97;;;14.87;61.70
57708;BME280;43540;51.690;9.562;2023-05-29T20:08:41;99956.06;;;14.84;61.83
57708;BME280;43540;51.690;9.562;2023-05-29T20:11:08;99959.91;;;14.61;62.67
57708;BME280;43540;51.690;9.562;2023-05-29T20:13:34;99956.59;;;14.68;63.45
57708;BME280;43540;51.690;9.562;2023-05-29T20:16:01;99964.94;;;14.73;64.96
57708;BME280;43540;51.690;9.562;2023-05-29T20:18:28;99967.00;;;14.60;64.04
57708;BME280;43540;51.690;9.562;2023-05-29T20:20:54;99965.03;;;14.52;64.84
57708;BME280;43540;51.690;9.562;2023-05-29T20:23:21;99967.22;;;14.38;66.04
57708;BME280;43540;51.690;9.562;2023-05-29T20:25:49;99973.69;;;14.24;66.04
57708;BME280;43540;51.690;9.562;2023-05-29T20:28:16;99972.53;;;14.07;69.49
57708;BME280;43540;51.690;9.562;2023-05-29T20:30:43;99975.06;;;14.09;67.50
57708;BME280;43540;51.690;9.562;2023-05-29T20:33:10;99976.06;;;14.17;68.15
57708;BME280;43540;51.690;9.562;2023-05-29T20:35:36;99972.84;;;14.14;70.23
57708;BME280;43540;51.690;9.562;2023-05-29T20:38:05;99973.59;;;13.95;69.64
57708;BME280;43540;51.690;9.562;2023-05-29T20:40:31;99969.84;;;13.98;70.33
57708;BME280;43540;51.690;9.562;2023-05-29T20:42:58;99968.34;;;14.05;71.75
57708;BME280;43540;51.690;9.562;2023-05-29T20:45:27;99976.13;;;14.06;71.55
57708;BME280;43540;51.690;9.562;2023-05-29T20:47:54;99970.34;;;14.12;70.96
57708;BME280;43540;51.690;9.562;2023-05-29T20:50:20;99971.22;;;13.92;71.40
57708;BME280;43540;51.690;9.562;2023-05-29T20:52:48;99974.88;;;14.01;69.83
57708;BME280;43540;51.690;9.562;2023-05-29T20:55:15;99979.13;;;13.92;72.36
57708;BME280;43540;51.690;9.562;2023-05-29T20:57:42;99969.06;;;13.76;72.02
57708;BME280;43540;51.690;9.562;2023-05-29T21:00:09;99972.31;;;13.89;72.01
57708;BME280;43540;51.690;9.562;2023-05-29T21:02:39;99980.84;;;14.03;73.08
57708;BME280;43540;51.690;9.562;2023-05-29T21:05:07;99978.81;;;13.85;73.77
57708;BME280;43540;51.690;9.562;2023-05-29T21:07:34;99970.22;;;13.83;72.30
57708;BME280;43540;51.690;9.562;2023-05-29T21:10:05;99980.16;;;13.80;70.31
57708;BME280;43540;51.690;9.562;2023-05-29T21:12:34;99976.78;;;13.68;70.29
57708;BME280;43540;51.690;9.562;2023-05-29T21:15:02;99979.94;;;13.62;70.18
57708;BME280;43540;51.690;9.562;2023-05-29T21:17:29;99980.41;;;13.67;71.22
57708;BME280;43540;51.690;9.562;2023-05-29T21:19:56;99970.97;;;13.44;70.96
57708;BME280;43540;51.690;9.562;2023-05-29T21:22:28;99973.44;;;13.35;70.17
57708;BME280;43540;51.690;9.562;2023-05-29T21:24:55;99968.91;;;13.47;69.55
57708;BME280;43540;51.690;9.562;2023-05-29T21:27:23;99967.06;;;13.38;69.56
57708;BME280;43540;51.690;9.562;2023-05-29T21:29:50;99973.47;;;13.24;69.49
57708;BME280;43540;51.690;9.562;2023-05-29T21:32:17;99973.06;;;13.08;69.64
57708;BME280;43540;51.690;9.562;2023-05-29T21:34:44;99970.59;;;13.16;69.94
57708;BME280;43540;51.690;9.562;2023-05-29T21:37:11;99981.63;;;13.21;70.32
57708;BME280;43540;51.690;9.562;2023-05-29T21:39:37;99975.56;;;13.09;71.63
57708;BME280;43540;51.690;9.562;2023-05-29T21:42:04;99979.03;;;13.10;69.67
57708;BME280;43540;51.690;9.562;2023-05-29T21:44:32;99973.03;;;13.19;68.61
57708;BME280;43540;51.690;9.562;2023-05-29T21:46:58;99975.06;;;12.84;69.40
57708;BME280;43540;51.690;9.562;2023-05-29T21:49:25;99973.91;;;12.97;69.39
57708;BME280;43540;51.690;9.562;2023-05-29T21:51:51;99973.28;;;12.84;69.69
57708;BME280;43540;51.690;9.562;2023-05-29T21:54:18;99982.91;;;12.51;69.94
57708;BME280;43540;51.690;9.562;2023-05-29T21:56:45;99979.97;;;12.34;70.96
57708;BME280;43540;51.690;9.562;2023-05-29T21:59:12;99985.47;;;12.53;71.58
57708;BME280;43540;51.690;9.562;2023-05-29T22:01:39;99992.38;;;12.43;70.83
57708;BME280;43540;51.690;9.562;2023-05-29T22:04:09;99997.31;;;12.36;70.20
57708;BME280;43540;51.690;9.562;2023-05-29T22:06:36;99988.03;;;12.10;69.17
57708;BME280;43540;51.690;9.562;2023-05-29T22:09:03;99999.22;;;12.23;69.68